Kota Ria — 9VJK4 — position and weather

sailwx.info

Track history (hours):
 
Tides and Currents Weather Stations Pressure Air Temp Water Temp Dewpoint Dewpoint Depression Visibility Wind Speed Wind Dir Waves Ship Positions

Kota Ria

Last reported at 2014-Oct-21 23:30 UTC. Time now 2014-Oct-23 08:02 UTC.
Position N 01°15' E 104°06'.

Length 146 m; draft 6.9 m.

Type: Ship. MMSI: 565050000.

Date/timePositionNaut miles runAvg speedWind from/ knotsBaromVisibWave heightAir tempDewpointWater temp
2014-Oct-21 23:30N 01°15' E 104°06'1213.1
2014-Oct-21 22:33N 01°12' E 103°54'8 8.3
2014-Oct-21 21:33N 01°15' E 103°46'2 1.9
2014-Oct-21 20:25N 01°17' E 103°46'0 0.0
2014-Oct-21 19:31N 01°17' E 103°46'0 0.0
2014-Oct-21 18:31N 01°17' E 103°46'0 0.0
2014-Oct-21 17:31N 01°17' E 103°46'0 0.1
2014-Oct-21 16:33N 01°17' E 103°46'0 0.1
2014-Oct-21 15:32N 01°17' E 103°46'0 0.0
2014-Oct-21 14:26N 01°17' E 103°46'0 0.0
2014-Oct-21 13:32N 01°17' E 103°46'0 0.0
2014-Oct-21 11:32N 01°17' E 103°46'0 0.0
2014-Oct-21 10:26N 01°17' E 103°46'0 0.0
2014-Oct-21 09:32N 01°17' E 103°46'0 0.0
2014-Oct-21 08:20N 01°17' E 103°46'0 0.0
2014-Oct-21 07:32N 01°17' E 103°46'0 0.0
2014-Oct-21 06:29N 01°17' E 103°46'0 0.0
2014-Oct-21 05:32N 01°17' E 103°46'0 0.0
2014-Oct-21 04:23N 01°17' E 103°46'0 0.0
2014-Oct-21 03:20N 01°17' E 103°46'0 0.0
2014-Oct-21 02:26N 01°17' E 103°46'0 0.0
2014-Oct-21 01:32N 01°17' E 103°46'0 0.0
2014-Oct-21 00:20N 01°17' E 103°46'0 0.0
2014-Oct-20 23:32N 01°17' E 103°46'0 0.0
2014-Oct-20 22:26N 01°17' E 103°46'0 0.0
2014-Oct-20 21:32N 01°17' E 103°46'0 0.0
2014-Oct-20 20:26N 01°17' E 103°46'0 0.0
2014-Oct-20 19:29N 01°17' E 103°46'0 0.0
2014-Oct-20 18:23N 01°17' E 103°46'1 1.3
2014-Oct-20 17:33N 01°16' E 103°45'8 8.6
2014-Oct-20 16:33N 01°13' E 103°53'7 6.5
2014-Oct-20 15:33N 01°15' E 103°60'9 7.8
2014-Oct-20 14:26N 01°17' E 104°08'  
2014-Oct-14 20:24N 01°14' E 104°05'1112.6
2014-Oct-14 19:33N 01°13' E 103°55'8 8.0
2014-Oct-14 18:33N 01°14' E 103°47'3 2.6
2014-Oct-14 17:33N 01°17' E 103°47'0 0.0
2014-Oct-14 16:33N 01°17' E 103°47'0 0.0
2014-Oct-14 15:30N 01°17' E 103°47'0 0.0
2014-Oct-14 14:33N 01°17' E 103°47'0 0.0
2014-Oct-14 13:33N 01°17' E 103°47'0 0.0
2014-Oct-14 12:30N 01°17' E 103°47'0 0.0
2014-Oct-14 11:33N 01°17' E 103°47'0 0.0
2014-Oct-14 10:33N 01°17' E 103°47'0 0.0
2014-Oct-14 09:33N 01°17' E 103°47'0 0.0
2014-Oct-14 08:33N 01°17' E 103°47'0 0.0
2014-Oct-14 07:30N 01°17' E 103°47'0 0.0
2014-Oct-14 06:33N 01°17' E 103°47'0 0.0
2014-Oct-14 05:33N 01°17' E 103°47'0 0.0
2014-Oct-14 04:33N 01°17' E 103°47'0 0.0
2014-Oct-14 03:33N 01°17' E 103°47'0 0.0
2014-Oct-14 02:33N 01°17' E 103°47'0 0.0
2014-Oct-14 01:33N 01°17' E 103°47'0 0.0
2014-Oct-14 00:33N 01°17' E 103°47'3 3.4
2014-Oct-13 23:33N 01°13' E 103°48'8 7.7
2014-Oct-13 22:33N 01°16' E 103°55'1 0.5
2014-Oct-13 21:33N 01°16' E 103°54'0 0.0
2014-Oct-13 20:33N 01°16' E 103°54'0 0.0
2014-Oct-13 19:33N 01°16' E 103°54'1 1.4
2014-Oct-13 18:33N 01°15' E 103°54'1 1.4
2014-Oct-13 17:33N 01°14' E 103°55'7 7.4
2014-Oct-13 16:33N 01°16' E 104°02'1413.0
2014-Oct-13 15:30N 01°18' E 104°16'  
Track history (hours):
 
Tides and Currents Weather Stations Pressure Air Temp Water Temp Dewpoint Dewpoint Depression Visibility Wind Speed Wind Dir Waves Ship Positions

Kota Ria

Last reported at 2014-Oct-21 23:30 UTC. Time now 2014-Oct-23 08:02 UTC.
Position N 01°15' E 104°06'.

Length 146 m; draft 6.9 m.

Type: Ship. MMSI: 565050000.

Date/timePositionNaut miles runAvg speedWind from/ knotsBaromVisibWave heightAir tempDewpointWater temp
2014-Oct-21 23:30N 01°15' E 104°06'1213.1
2014-Oct-21 22:33N 01°12' E 103°54'8 8.3
2014-Oct-21 21:33N 01°15' E 103°46'2 1.9
2014-Oct-21 20:25N 01°17' E 103°46'0 0.0
2014-Oct-21 19:31N 01°17' E 103°46'0 0.0
2014-Oct-21 18:31N 01°17' E 103°46'0 0.0
2014-Oct-21 17:31N 01°17' E 103°46'0 0.1
2014-Oct-21 16:33N 01°17' E 103°46'0 0.1
2014-Oct-21 15:32N 01°17' E 103°46'0 0.0
2014-Oct-21 14:26N 01°17' E 103°46'0 0.0
2014-Oct-21 13:32N 01°17' E 103°46'0 0.0
2014-Oct-21 11:32N 01°17' E 103°46'0 0.0
2014-Oct-21 10:26N 01°17' E 103°46'0 0.0
2014-Oct-21 09:32N 01°17' E 103°46'0 0.0
2014-Oct-21 08:20N 01°17' E 103°46'0 0.0
2014-Oct-21 07:32N 01°17' E 103°46'0 0.0
2014-Oct-21 06:29N 01°17' E 103°46'0 0.0
2014-Oct-21 05:32N 01°17' E 103°46'0 0.0
2014-Oct-21 04:23N 01°17' E 103°46'0 0.0
2014-Oct-21 03:20N 01°17' E 103°46'0 0.0
2014-Oct-21 02:26N 01°17' E 103°46'0 0.0
2014-Oct-21 01:32N 01°17' E 103°46'0 0.0
2014-Oct-21 00:20N 01°17' E 103°46'0 0.0
2014-Oct-20 23:32N 01°17' E 103°46'0 0.0
2014-Oct-20 22:26N 01°17' E 103°46'0 0.0
2014-Oct-20 21:32N 01°17' E 103°46'0 0.0
2014-Oct-20 20:26N 01°17' E 103°46'0 0.0
2014-Oct-20 19:29N 01°17' E 103°46'0 0.0
2014-Oct-20 18:23N 01°17' E 103°46'1 1.3
2014-Oct-20 17:33N 01°16' E 103°45'8 8.6
2014-Oct-20 16:33N 01°13' E 103°53'7 6.5
2014-Oct-20 15:33N 01°15' E 103°60'9 7.8
2014-Oct-20 14:26N 01°17' E 104°08'  
2014-Oct-14 20:24N 01°14' E 104°05'1112.6
2014-Oct-14 19:33N 01°13' E 103°55'8 8.0
2014-Oct-14 18:33N 01°14' E 103°47'3 2.6
2014-Oct-14 17:33N 01°17' E 103°47'0 0.0
2014-Oct-14 16:33N 01°17' E 103°47'0 0.0
2014-Oct-14 15:30N 01°17' E 103°47'0 0.0
2014-Oct-14 14:33N 01°17' E 103°47'0 0.0
2014-Oct-14 13:33N 01°17' E 103°47'0 0.0
2014-Oct-14 12:30N 01°17' E 103°47'0 0.0
2014-Oct-14 11:33N 01°17' E 103°47'0 0.0
2014-Oct-14 10:33N 01°17' E 103°47'0 0.0
2014-Oct-14 09:33N 01°17' E 103°47'0 0.0
2014-Oct-14 08:33N 01°17' E 103°47'0 0.0
2014-Oct-14 07:30N 01°17' E 103°47'0 0.0
2014-Oct-14 06:33N 01°17' E 103°47'0 0.0
2014-Oct-14 05:33N 01°17' E 103°47'0 0.0
2014-Oct-14 04:33N 01°17' E 103°47'0 0.0
2014-Oct-14 03:33N 01°17' E 103°47'0 0.0
2014-Oct-14 02:33N 01°17' E 103°47'0 0.0
2014-Oct-14 01:33N 01°17' E 103°47'0 0.0
2014-Oct-14 00:33N 01°17' E 103°47'3 3.4
2014-Oct-13 23:33N 01°13' E 103°48'8 7.7
2014-Oct-13 22:33N 01°16' E 103°55'1 0.5
2014-Oct-13 21:33N 01°16' E 103°54'0 0.0
2014-Oct-13 20:33N 01°16' E 103°54'0 0.0
2014-Oct-13 19:33N 01°16' E 103°54'1 1.4
2014-Oct-13 18:33N 01°15' E 103°54'1 1.4
2014-Oct-13 17:33N 01°14' E 103°55'7 7.4
2014-Oct-13 16:33N 01°16' E 104°02'1413.0
2014-Oct-13 15:30N 01°18' E 104°16'  

Dump ship's entire track history